createdAt,value
2023-03-18T00:03:58.533Z,91.57
2023-03-18T00:14:02.497Z,95.33
2023-03-18T00:24:07.967Z,94.40
2023-03-18T00:34:12.597Z,100.33
2023-03-18T00:44:19.461Z,96.00
2023-03-18T00:54:24.837Z,99.50
2023-03-18T01:04:29.867Z,96.73
2023-03-18T01:14:33.501Z,97.40
2023-03-18T01:24:39.552Z,97.23
2023-03-18T01:34:44.259Z,91.63
2023-03-18T01:44:49.998Z,95.93
2023-03-18T01:55:02.895Z,94.33
2023-03-18T02:05:12.995Z,92.13
2023-03-18T02:15:21.376Z,90.93
2023-03-18T02:25:38.492Z,91.00
2023-03-18T02:35:47.362Z,94.80
2023-03-18T02:46:13.763Z,98.10
2023-03-18T02:56:19.615Z,91.40
2023-03-18T03:06:24.043Z,97.07
2023-03-18T03:16:29.621Z,93.70
2023-03-18T03:26:35.071Z,89.83
2023-03-18T03:36:40.154Z,88.83
2023-03-18T03:46:43.648Z,90.73
2023-03-18T03:56:48.811Z,91.33
2023-03-18T04:06:52.779Z,91.73
2023-03-18T04:17:00.455Z,91.60
2023-03-18T04:27:05.828Z,88.87
2023-03-18T04:37:11.763Z,90.93
2023-03-18T04:47:16.605Z,94.37
2023-03-18T04:57:23.055Z,91.13
2023-03-18T05:07:31.915Z,94.30
2023-03-18T05:17:42.876Z,89.17
2023-03-18T05:27:47.662Z,94.67
2023-03-18T05:38:05.161Z,88.53
2023-03-18T05:48:09.317Z,91.90
2023-03-18T05:58:22.168Z,91.53
2023-03-18T06:08:31.857Z,92.80
2023-03-18T06:18:37.438Z,88.47
2023-03-18T06:28:41.204Z,91.17
2023-03-18T06:38:48.910Z,91.90
2023-03-18T06:48:54.600Z,92.37
2023-03-18T06:59:05.370Z,102.80
2023-03-18T07:09:11.185Z,97.03
2023-03-18T07:19:17.857Z,96.83
2023-03-18T07:29:22.470Z,102.50
2023-03-18T07:39:27.606Z,103.97
2023-03-18T07:49:31.920Z,107.93
2023-03-18T07:59:37.624Z,108.70
2023-03-18T08:09:41.216Z,109.93
2023-03-18T08:19:47.130Z,107.43
2023-03-18T08:29:50.897Z,114.57
2023-03-18T08:39:55.802Z,116.87
2023-03-18T08:49:59.322Z,118.13
2023-03-18T09:00:05.500Z,121.77
2023-03-18T09:10:12.899Z,119.77
2023-03-18T09:20:19.421Z,124.57
2023-03-18T09:30:23.402Z,121.93
2023-03-18T09:40:32.893Z,123.32
2023-03-18T09:50:44.259Z,135.90
2023-03-18T10:00:52.032Z,128.38
2023-03-18T10:10:55.539Z,133.75
2023-03-18T10:21:18.831Z,128.35
2023-03-18T10:31:51.333Z,136.45
2023-03-18T10:42:02.316Z,138.88
2023-03-18T10:52:13.685Z,148.93
2023-03-18T11:02:24.149Z,148.23
2023-03-18T11:12:30.033Z,155.45
2023-03-18T11:22:36.824Z,140.98
2023-03-18T11:32:54.293Z,142.93
2023-03-18T11:43:04.628Z,150.52
2023-03-18T11:53:14.969Z,142.38
2023-03-18T12:04:02.198Z,149.52
2023-03-18T12:14:12.923Z,139.30
2023-03-18T12:24:51.522Z,153.02
2023-03-18T12:35:30.268Z,143.52
2023-03-18T12:45:39.771Z,144.90
2023-03-18T12:55:48.290Z,152.70
2023-03-18T13:05:57.068Z,141.45
2023-03-18T13:16:04.751Z,139.88
2023-03-18T13:26:16.957Z,146.20
2023-03-18T13:36:51.041Z,144.07
2023-03-18T13:47:05.505Z,157.43
2023-03-18T13:57:34.596Z,133.38
2023-03-18T14:07:49.606Z,134.52
2023-03-18T14:17:58.616Z,137.90
2023-03-18T14:28:20.590Z,142.50
2023-03-18T14:38:28.106Z,136.25
2023-03-18T14:48:34.646Z,139.93
2023-03-18T14:58:38.274Z,124.15
2023-03-18T15:08:52.205Z,125.63
2023-03-18T15:18:57.248Z,113.87
2023-03-18T15:29:24.286Z,106.87
2023-03-18T15:39:36.142Z,108.23
2023-03-18T15:49:52.853Z,111.90
2023-03-18T15:59:56.441Z,116.23
2023-03-18T16:10:01.708Z,107.93
2023-03-18T16:20:17.211Z,101.80
2023-03-18T16:30:26.549Z,103.27
2023-03-18T16:40:32.841Z,101.30
2023-03-18T16:50:40.056Z,100.57
2023-03-18T17:00:46.874Z,107.77
2023-03-18T17:10:55.799Z,98.83
2023-03-18T17:20:59.508Z,99.50
2023-03-18T17:31:05.033Z,91.43
2023-03-18T17:41:17.698Z,93.50
2023-03-18T17:51:24.756Z,107.13
2023-03-18T18:01:31.122Z,103.50
2023-03-18T18:11:39.777Z,101.47
2023-03-18T18:21:44.806Z,100.77
2023-03-18T18:31:50.503Z,93.23
2023-03-18T18:41:55.559Z,94.70
2023-03-18T18:52:02.287Z,93.03
2023-03-18T19:02:32.002Z,93.03
2023-03-18T19:12:39.915Z,94.30
2023-03-18T19:22:44.794Z,103.80
2023-03-18T19:32:50.747Z,94.33
2023-03-18T19:42:55.311Z,100.80
2023-03-18T19:53:01.922Z,101.17
2023-03-18T20:03:11.972Z,104.40
2023-03-18T20:13:22.428Z,109.07
2023-03-18T20:23:30.141Z,108.57
2023-03-18T20:33:37.089Z,111.17
2023-03-18T20:43:49.390Z,112.67
2023-03-18T20:53:55.195Z,114.93
2023-03-18T21:04:02.335Z,105.43
2023-03-18T21:14:16.930Z,106.23
2023-03-18T21:24:29.192Z,114.93
2023-03-18T21:34:36.503Z,126.63
2023-03-18T21:44:40.935Z,134.93
2023-03-18T21:54:48.501Z,105.90
2023-03-18T22:04:53.503Z,113.00
2023-03-18T22:15:00.161Z,129.17
2023-03-18T22:25:04.229Z,122.60
2023-03-18T22:35:16.557Z,127.07
2023-03-18T22:45:25.588Z,116.73
2023-03-18T22:55:35.242Z,124.53
2023-03-18T23:05:38.925Z,132.00
2023-03-18T23:15:44.476Z,123.90
2023-03-18T23:25:48.395Z,120.37
2023-03-18T23:35:53.378Z,120.33
2023-03-18T23:45:56.925Z,112.13
2023-03-18T23:56:01.854Z,113.47
